Aviation Digital Data Service (ADDS)

Output produced by METARs form (0154 UTC 21 April 2018)
found at http://aviationweather.gov/adds/metars/
 
KFIG 210054Z AUTO 34004KT 10SM CLR 05/M06 A3038 RMK AO2 SLP300 T00501056
KFIG 202354Z AUTO 34008G15KT 10SM CLR 07/M06 A3035 RMK AO2 SLP288 T00671056 10106 20067 53013
KFIG 202254Z AUTO 34006KT 10SM CLR 09/M06 A3033 RMK AO2 SLP282 T00891056
KFIG 202154Z AUTO 33010KT 10SM CLR 10/M06 A3032 RMK AO2 SLP277 T01001056
KFIG 202054Z AUTO 33016G22KT 10SM CLR 11/M05 A3030 RMK AO2 SLP273 T01061050 53003
KFIG 201954Z AUTO 33012G22KT 10SM CLR 10/M04 A3030 RMK AO2 SLP271 T01001044
KFIG 201854Z AUTO 34014G21KT 10SM CLR 10/M04 A3030 RMK AO2 SLP271 T01001044
KFIG 201754Z AUTO 34011G22KT 10SM CLR 08/M04 A3030 RMK AO2 PK WND 32026/1738 SLP271 T00831044 10089 21006 58004
KFIG 201654Z AUTO 28011G18KT 10SM CLR 07/M05 A3030 RMK AO2 SLP273 T00721050
KFIG 201554Z AUTO 32008G19KT 10SM CLR 06/M04 A3031 RMK AO2 SLP276 T00561044
KFIG 201454Z AUTO 33012G19KT 10SM CLR 03/M06 A3031 RMK AO2 SLP278 T00331056 51015
KFIG 201354Z AUTO 32011G18KT 280V360 10SM FEW030 02/M05 A3029 RMK AO2 SLP274 T00221050
KFIG 201254Z AUTO 31013G17KT 10SM SCT027 01/M06 A3028 RMK AO2 SLP270 T00061056
KFIG 201154Z AUTO 29009KT 10SM FEW025 M01/M06 A3026 RMK AO2 SLP264 70005 T10061056 11006 21022 51021
KFIG 201054Z AUTO 28007KT 10SM CLR M02/M06 A3025 RMK AO2 SLP260 T10171061
KFIG 200954Z AUTO 28006KT 10SM CLR M02/M06 A3022 RMK AO2 SLP250 T10171061
KFIG 200854Z AUTO 25006KT 10SM CLR M02/M06 A3020 RMK AO2 SLP244 T10221061 53010
KFIG 200754Z AUTO 25007KT 10SM CLR M02/M06 A3018 RMK AO2 SLP237 T10171061
KFIG 200654Z AUTO 27004KT 10SM CLR M02/M06 A3017 RMK AO2 SLP232 T10171061
KFIG 200554Z AUTO 28008KT 10SM CLR M01/M06 A3017 RMK AO2 SLP233 T10111061 10017 21011 53007
KFIG 200454Z AUTO 31013KT 10SM BKN038 M01/M06 A3016 RMK AO2 SLP227 T10061061 400391006
KFIG 200354Z AUTO 31007KT 10SM SCT036 00/M06 A3015 RMK AO2 SLP225 T00001061
KFIG 200254Z AUTO 31008KT 10SM OVC032 00/M06 A3015 RMK AO2 SLP223 T00001056 51023
KFIG 200154Z AUTO 29010KT 10SM OVC034 00/M06 A3014 RMK AO2 SLP222 T00001061
KFIG 200054Z AUTO 29011G17KT 10SM OVC038 01/M06 A3011 RMK AO2 SLP211 T00061061
KFIG 192354Z AUTO 29014G19KT 10SM BKN032 OVC040 02/M04 A3007 RMK AO2 PK WND 30027/2322 SLP197 60000 T00171044 10022 20006 53020
KFIG 192254Z AUTO 30013G19KT 10SM BKN034 OVC042 02/M04 A3005 RMK AO2 SNB19E30 SLP189 P0000 T00171044
KFIG 192237Z AUTO 30011G20KT 10SM SCT026 OVC032 02/M04 A3004 RMK AO2 SNB19E30 P0000 T00171039
KFIG 192219Z AUTO 28007KT 250V320 9SM -SN BKN026 OVC036 02/M03 A3004 RMK AO2 SNB19 P0000 T00171033
KFIG 192154Z AUTO 29011G16KT 10SM FEW028 SCT036 OVC043 02/M04 A3002 RMK AO2 SLP180 T00221039
KFIG 192054Z AUTO 31009G19KT 10SM OVC032 02/M04 A3001 RMK AO2 SLP176 60000 T00171044 51025
KFIG 191954Z AUTO 32010G17KT 280V350 10SM OVC032 01/M04 A2999 RMK AO2 RAB1857E12UPB1859E00 SLP168 P0000 T00111039
KFIG 191928Z AUTO 31010G24KT 270V350 10SM SCT022 OVC035 01/M04 A2998 RMK AO2 RAB1857E12UPB1859E00 P0000 T00111039
KFIG 191854Z AUTO 30013G20KT 10SM OVC023 01/M03 A2996 RMK AO2 RAE46UPB1757E00B40E44 SLP158 P0000 T00061033
KFIG 191806Z AUTO 30016G23KT 10SM -RA BKN025 BKN030 OVC040 01/M03 A2994 RMK AO2 UPB1757E00 P0000 T00111033
KFIG 191754Z AUTO 30008G23KT 250V330 10SM -RA SCT023 BKN031 OVC040 01/M03 A2993 RMK AO2 PK WND 30028/1741 RAE04B41UPB23E29SNB04E18B29E41 SLP149 P0000 60005 T00111028 10022 20006 51037
KFIG 191743Z AUTO 30017G28KT 9SM -RA FEW025 SCT029 OVC040 02/M03 A2992 RMK AO2 PK WND 30028/1741 RAE04B41UPB23E29SNB04E18B29E41 P0000 T00171033
KFIG 191730Z AUTO 30013G24KT 8SM -SN BKN024 BKN030 OVC041 02/M03 A2991 RMK AO2 RAE04UPB23E29SNB04E18B29 P0000 T00171028
KFIG 191720Z AUTO 29016G24KT 9SM SCT022 SCT028 OVC041 02/M02 A2991 RMK AO2 RAE04SNB04E18 P0000 T00171022
KFIG 191654Z AUTO 27011KT 10SM -RA SCT022 BKN027 OVC038 02/M02 A2990 RMK AO2 UPB1558E10B34E39RAB47SNE1558B10E34 SLP135 P0001 T00221022
KFIG 191554Z AUTO 34010KT 5SM -SN BR SCT011 BKN018 OVC050 02/00 A2987 RMK AO2 UPB21E23SNE21B23 SLP125 P0000 T00170000
KFIG 191545Z AUTO 32009G15KT 2SM -SN BR FEW011 BKN025 OVC036 02/M01 A2986 RMK AO2 UPB21E23SNE21B23 P0000 T00171006
KFIG 191533Z AUTO 34008KT 1 3/4SM -SN BR FEW007 BKN021 OVC038 01/M01 A2985 RMK AO2 UPB21E23SNE21B23 P0000 T00111006
KFIG 191528Z AUTO 34010KT 2 1/2SM -SN BR FEW011 BKN028 OVC038 01/M01 A2985 RMK AO2 UPB21E23SNE21B23 P0000 T00111006
KFIG 191501Z AUTO 33015G21KT 6SM -SN BR FEW011 BKN035 OVC043 02/00 A2983 RMK AO2 P0000 T00220000
KFIG 191454Z AUTO 33008KT 6SM -SN BR FEW015 BKN028 OVC040 02/01 A2982 RMK AO2 SLP107 P0000 60004 T00220006 53029
KFIG 191439Z AUTO 33011G15KT 3SM -SN BR FEW007 BKN024 OVC036 01/M01 A2981 RMK AO2 P0000 T00111006
KFIG 191413Z AUTO 32007KT 1 1/2SM -SN BR FEW005 BKN015 OVC028 01/00 A2979 RMK AO2 P0000 T00060000